createdAt,value
2017-10-15T00:02:01.519Z,11.80
2017-10-15T00:04:04.292Z,11.80
2017-10-15T00:06:06.999Z,11.80
2017-10-15T00:08:09.682Z,11.70
2017-10-15T00:10:12.413Z,11.70
2017-10-15T00:12:15.080Z,11.70
2017-10-15T00:14:18.531Z,11.80
2017-10-15T00:16:21.190Z,11.70
2017-10-15T00:18:23.878Z,11.70
2017-10-15T00:20:26.621Z,11.60
2017-10-15T00:22:29.298Z,11.60
2017-10-15T00:24:31.959Z,11.60
2017-10-15T00:26:34.620Z,11.70
2017-10-15T00:28:38.067Z,11.70
2017-10-15T00:30:40.820Z,11.70
2017-10-15T00:32:43.501Z,11.70
2017-10-15T00:34:46.162Z,11.70
2017-10-15T00:36:48.957Z,11.80
2017-10-15T00:38:51.639Z,11.70
2017-10-15T00:40:54.315Z,11.70
2017-10-15T00:42:57.011Z,11.60
2017-10-15T00:44:59.678Z,11.50
2017-10-15T00:47:02.325Z,11.50
2017-10-15T00:49:05.009Z,11.50
2017-10-15T00:51:07.694Z,11.70
2017-10-15T00:53:10.369Z,11.70
2017-10-15T00:55:13.052Z,11.60
2017-10-15T00:57:15.759Z,11.50
2017-10-15T00:59:18.476Z,11.60
2017-10-15T01:01:21.163Z,11.80
2017-10-15T01:03:23.820Z,12.00
2017-10-15T01:05:27.299Z,11.90
2017-10-15T01:07:30.739Z,11.60
2017-10-15T01:09:33.404Z,11.60
2017-10-15T01:11:36.279Z,11.50
2017-10-15T01:13:38.938Z,11.40
2017-10-15T01:15:42.770Z,11.60
2017-10-15T01:17:45.465Z,11.60
2017-10-15T01:19:48.299Z,11.60
2017-10-15T01:21:51.768Z,11.60
2017-10-15T01:23:54.502Z,11.60
2017-10-15T01:25:57.195Z,11.60
2017-10-15T01:27:59.878Z,11.50
2017-10-15T01:30:02.689Z,11.50
2017-10-15T01:32:05.386Z,11.50
2017-10-15T01:34:08.865Z,11.50
2017-10-15T01:36:12.349Z,11.50
2017-10-15T01:38:15.115Z,11.50
2017-10-15T01:40:17.838Z,11.40
2017-10-15T01:42:20.678Z,11.40
2017-10-15T01:44:24.127Z,11.40
2017-10-15T01:46:26.845Z,11.40
2017-10-15T01:48:29.529Z,11.50
2017-10-15T01:50:32.213Z,11.30
2017-10-15T01:52:34.967Z,11.20
2017-10-15T01:54:37.815Z,11.30
2017-10-15T01:56:40.512Z,11.40
2017-10-15T01:58:43.222Z,11.30
2017-10-15T02:00:45.966Z,11.30
2017-10-15T02:02:48.635Z,11.30
2017-10-15T02:04:51.398Z,11.20
2017-10-15T02:06:54.069Z,11.20
2017-10-15T02:08:56.787Z,11.10
2017-10-15T02:10:59.495Z,11.30
2017-10-15T02:13:02.964Z,11.10
2017-10-15T02:15:05.657Z,11.10
2017-10-15T02:17:08.347Z,11.30
2017-10-15T02:19:11.771Z,11.20
2017-10-15T02:21:14.457Z,11.20
2017-10-15T02:23:17.133Z,11.10
2017-10-15T02:25:19.804Z,11.10
2017-10-15T02:27:22.453Z,11.00
2017-10-15T02:29:25.893Z,11.10
2017-10-15T02:31:28.528Z,11.00
2017-10-15T02:33:31.177Z,10.90
2017-10-15T02:35:33.849Z,10.80
2017-10-15T02:37:36.528Z,10.80
2017-10-15T02:39:39.249Z,10.90
2017-10-15T02:41:42.007Z,11.00
2017-10-15T02:43:44.644Z,11.10
2017-10-15T02:45:47.362Z,11.20
2017-10-15T02:47:50.046Z,11.00
2017-10-15T02:49:52.692Z,11.00
2017-10-15T02:51:56.109Z,11.00
2017-10-15T02:53:58.795Z,10.90
2017-10-15T02:56:01.454Z,11.00
2017-10-15T02:58:04.097Z,10.90
2017-10-15T03:00:06.779Z,11.00
2017-10-15T03:02:09.424Z,11.00
2017-10-15T03:04:12.079Z,11.00
2017-10-15T03:06:14.763Z,11.20
2017-10-15T03:08:17.406Z,11.30
2017-10-15T03:10:20.817Z,11.20
2017-10-15T03:12:23.493Z,11.20
2017-10-15T03:14:26.150Z,11.10
2017-10-15T03:16:29.683Z,11.30
2017-10-15T03:18:32.362Z,11.30
2017-10-15T03:20:35.004Z,11.20
2017-10-15T03:22:37.723Z,11.20
2017-10-15T03:24:40.372Z,11.10
2017-10-15T03:26:43.034Z,11.20
2017-10-15T03:28:45.706Z,11.20
2017-10-15T03:30:49.139Z,11.40
2017-10-15T03:32:51.913Z,11.10
2017-10-15T03:34:54.592Z,11.10
2017-10-15T03:36:57.242Z,11.00
2017-10-15T03:38:59.950Z,11.10
2017-10-15T03:41:02.602Z,11.10
2017-10-15T03:43:05.274Z,11.00
2017-10-15T03:45:07.959Z,11.00
2017-10-15T03:47:11.362Z,11.10
2017-10-15T03:49:14.025Z,11.00
2017-10-15T03:51:16.727Z,11.00
2017-10-15T03:53:19.395Z,11.00
2017-10-15T03:55:22.048Z,11.00
2017-10-15T03:57:24.726Z,11.10
2017-10-15T03:59:27.403Z,11.00
2017-10-15T04:01:30.062Z,11.10
2017-10-15T04:03:33.518Z,11.10
2017-10-15T04:05:36.179Z,11.10
2017-10-15T04:07:38.835Z,11.10
2017-10-15T04:09:41.603Z,11.00
2017-10-15T04:11:44.280Z,10.90
2017-10-15T04:13:46.941Z,10.90
2017-10-15T04:15:49.617Z,10.70
2017-10-15T04:17:52.295Z,10.60
2017-10-15T04:19:54.956Z,10.70
2017-10-15T04:21:58.482Z,10.70
2017-10-15T04:24:01.125Z,10.70
2017-10-15T04:26:04.550Z,10.70
2017-10-15T04:28:07.231Z,10.70
2017-10-15T04:30:09.899Z,10.60
2017-10-15T04:32:12.919Z,10.50
2017-10-15T04:34:15.584Z,10.40
2017-10-15T04:36:18.240Z,10.40
2017-10-15T04:38:20.952Z,10.40
2017-10-15T04:40:23.691Z,10.50
2017-10-15T04:42:26.366Z,10.60
2017-10-15T04:44:29.046Z,10.60
2017-10-15T04:46:31.699Z,10.60
2017-10-15T04:48:35.127Z,10.60
2017-10-15T04:50:37.930Z,10.50
2017-10-15T04:52:40.670Z,10.50
2017-10-15T04:54:43.346Z,10.40
2017-10-15T04:56:46.433Z,10.40
2017-10-15T04:58:49.109Z,10.50
2017-10-15T05:00:51.784Z,10.60
2017-10-15T05:02:54.474Z,10.50
2017-10-15T05:04:57.129Z,10.50
2017-10-15T05:06:59.805Z,10.40
2017-10-15T05:09:02.487Z,10.60
2017-10-15T05:11:05.141Z,10.70
2017-10-15T05:13:08.570Z,10.50
2017-10-15T05:15:11.242Z,10.50
2017-10-15T05:17:13.908Z,10.20
2017-10-15T05:19:16.549Z,10.20
2017-10-15T05:21:19.255Z,10.20
2017-10-15T05:23:21.915Z,10.20
2017-10-15T05:25:25.321Z,10.10
2017-10-15T05:27:27.988Z,10.00
2017-10-15T05:29:31.414Z,10.10
2017-10-15T05:31:34.061Z,10.10
2017-10-15T05:33:36.751Z,10.10
2017-10-15T05:35:39.432Z,10.00
2017-10-15T05:37:42.085Z,10.10
2017-10-15T05:39:45.533Z,10.00
2017-10-15T05:41:48.199Z,10.00
2017-10-15T05:43:51.024Z,9.90
2017-10-15T05:45:54.473Z,9.80
2017-10-15T05:47:57.352Z,9.80
2017-10-15T05:50:00.057Z,9.80
2017-10-15T05:52:02.782Z,10.00
2017-10-15T05:54:05.442Z,9.90
2017-10-15T05:56:08.250Z,10.10
2017-10-15T05:58:10.917Z,10.10
2017-10-15T06:00:13.794Z,10.20
2017-10-15T06:02:16.441Z,10.40
2017-10-15T06:04:19.906Z,10.50
2017-10-15T06:06:22.567Z,10.50
2017-10-15T06:08:25.230Z,10.60
2017-10-15T06:10:27.938Z,10.70
2017-10-15T06:12:30.593Z,10.70
2017-10-15T06:14:33.271Z,10.80
2017-10-15T06:16:36.051Z,10.80
2017-10-15T06:18:38.713Z,10.80
2017-10-15T06:20:41.411Z,10.90
2017-10-15T06:22:44.084Z,10.90
2017-10-15T06:24:46.772Z,11.00
2017-10-15T06:26:49.428Z,11.00
2017-10-15T06:28:52.147Z,11.00
2017-10-15T06:30:55.634Z,11.10
2017-10-15T06:32:58.356Z,11.10
2017-10-15T06:35:01.234Z,11.20
2017-10-15T06:37:03.898Z,11.10
2017-10-15T06:39:06.538Z,11.00
2017-10-15T06:41:09.398Z,11.10
2017-10-15T06:43:12.051Z,11.10
2017-10-15T06:45:14.796Z,11.10
2017-10-15T06:47:18.616Z,12.70
2017-10-15T06:49:21.282Z,12.70
2017-10-15T06:51:25.205Z,14.60
2017-10-15T06:53:27.879Z,14.60
2017-10-15T06:55:30.529Z,15.40
2017-10-15T06:57:33.982Z,16.10
2017-10-15T06:59:36.616Z,16.10
2017-10-15T07:01:39.300Z,16.80
2017-10-15T07:03:41.999Z,16.80
2017-10-15T07:05:44.642Z,17.30
2017-10-15T07:07:47.289Z,17.10
2017-10-15T07:09:49.976Z,17.50
2017-10-15T07:11:53.412Z,17.40
2017-10-15T07:13:56.059Z,17.40
2017-10-15T07:15:58.721Z,17.80
2017-10-15T07:18:02.152Z,17.70
2017-10-15T07:20:04.815Z,17.70
2017-10-15T07:22:07.897Z,18.20
2017-10-15T07:24:10.537Z,18.10
2017-10-15T07:26:13.187Z,18.60
2017-10-15T07:28:15.934Z,18.30
2017-10-15T07:30:18.818Z,18.90
2017-10-15T07:32:21.488Z,18.80
2017-10-15T07:34:24.270Z,18.40
2017-10-15T07:36:26.979Z,18.90
2017-10-15T07:38:29.631Z,19.20
2017-10-15T07:40:32.311Z,18.70
2017-10-15T07:42:34.995Z,19.00
2017-10-15T07:44:37.673Z,19.60
2017-10-15T07:46:40.337Z,19.30
2017-10-15T07:48:43.160Z,19.50
2017-10-15T07:50:45.890Z,19.80
2017-10-15T07:52:48.574Z,19.70
2017-10-15T07:54:51.239Z,19.70
2017-10-15T07:56:53.885Z,19.30
2017-10-15T07:58:57.345Z,19.50
2017-10-15T08:01:00.089Z,19.50
2017-10-15T08:03:04.899Z,19.30
2017-10-15T08:05:07.570Z,19.70
2017-10-15T08:07:10.262Z,20.00
2017-10-15T08:09:12.988Z,20.30
2017-10-15T08:11:15.646Z,20.60
2017-10-15T08:13:18.320Z,20.30
2017-10-15T08:15:21.017Z,20.00
2017-10-15T08:17:23.785Z,20.40
2017-10-15T08:19:26.524Z,20.60
2017-10-15T08:21:29.297Z,20.60
2017-10-15T08:23:32.132Z,21.70
2017-10-15T08:25:34.860Z,21.90
2017-10-15T08:27:37.637Z,21.70
2017-10-15T08:29:40.269Z,22.30
2017-10-15T08:31:42.942Z,22.50
2017-10-15T08:33:45.615Z,21.60
2017-10-15T08:35:48.292Z,22.00
2017-10-15T08:37:50.971Z,22.20
2017-10-15T08:39:54.448Z,22.20
2017-10-15T08:41:57.121Z,22.20
2017-10-15T08:44:01.645Z,22.70
2017-10-15T08:46:05.185Z,22.30
2017-10-15T08:48:10.853Z,22.20
2017-10-15T08:50:13.498Z,21.10
2017-10-15T08:52:16.960Z,21.10
2017-10-15T08:54:19.699Z,21.10
2017-10-15T08:56:22.354Z,21.40
2017-10-15T08:58:25.089Z,21.90
2017-10-15T09:00:27.826Z,22.40
2017-10-15T09:02:30.576Z,21.30
2017-10-15T09:04:34.074Z,21.20
2017-10-15T09:06:37.914Z,21.50
2017-10-15T09:08:40.681Z,21.50
2017-10-15T09:10:43.378Z,22.70
2017-10-15T09:12:46.049Z,22.90
2017-10-15T09:14:48.825Z,22.80
2017-10-15T09:16:51.498Z,22.20
2017-10-15T09:18:54.146Z,23.00
2017-10-15T09:20:57.597Z,22.10
2017-10-15T09:23:00.317Z,22.10
2017-10-15T09:25:03.753Z,22.50
2017-10-15T09:27:06.418Z,22.50
2017-10-15T09:29:09.195Z,22.50
2017-10-15T09:31:11.864Z,22.00
2017-10-15T09:33:14.547Z,22.50
2017-10-15T09:35:17.222Z,23.00
2017-10-15T09:37:19.991Z,22.40
2017-10-15T09:39:22.645Z,22.20
2017-10-15T09:41:28.051Z,22.50
2017-10-15T09:43:30.705Z,22.70
2017-10-15T09:45:33.379Z,22.90
2017-10-15T09:47:36.274Z,24.10
2017-10-15T09:49:38.928Z,24.10
2017-10-15T09:51:41.590Z,23.90
2017-10-15T09:53:44.281Z,23.90
2017-10-15T09:55:47.740Z,24.40
2017-10-15T09:57:50.485Z,24.40
2017-10-15T09:59:53.181Z,23.80
2017-10-15T10:01:56.619Z,25.10
2017-10-15T10:03:59.289Z,25.10
2017-10-15T10:06:02.016Z,25.10
2017-10-15T10:08:04.660Z,24.80
2017-10-15T10:10:07.328Z,23.70
2017-10-15T10:12:10.027Z,23.80
2017-10-15T10:14:12.677Z,23.60
2017-10-15T10:16:15.369Z,22.90
2017-10-15T10:18:18.125Z,23.90
2017-10-15T10:20:21.021Z,25.10
2017-10-15T10:22:23.786Z,25.00
2017-10-15T10:24:26.566Z,24.90
2017-10-15T10:26:29.254Z,25.60
2017-10-15T10:28:31.928Z,24.90
2017-10-15T10:30:34.592Z,24.60
2017-10-15T10:32:37.252Z,24.60
2017-10-15T10:34:39.935Z,25.20
2017-10-15T10:36:42.615Z,24.90
2017-10-15T10:38:45.290Z,25.00
2017-10-15T10:40:48.105Z,25.00
2017-10-15T10:42:53.118Z,25.00
2017-10-15T10:44:56.757Z,24.50
2017-10-15T10:46:59.439Z,24.40
2017-10-15T10:49:02.091Z,24.40
2017-10-15T10:51:04.883Z,24.50
2017-10-15T10:53:07.604Z,23.00
2017-10-15T10:55:10.329Z,22.40
2017-10-15T10:57:13.167Z,21.90
2017-10-15T10:59:16.052Z,22.00
2017-10-15T11:01:18.929Z,21.60
2017-10-15T11:03:21.628Z,21.40
2017-10-15T11:05:24.453Z,21.60
2017-10-15T11:07:33.381Z,21.90
2017-10-15T11:09:36.832Z,21.90
2017-10-15T11:11:39.484Z,21.90
2017-10-15T11:13:42.143Z,22.10
2017-10-15T11:15:44.827Z,22.20
2017-10-15T11:17:47.494Z,21.80
2017-10-15T11:19:50.287Z,21.70
2017-10-15T11:21:52.977Z,21.60
2017-10-15T11:23:55.636Z,21.70
2017-10-15T11:25:58.314Z,22.00
2017-10-15T11:28:01.107Z,22.00
2017-10-15T11:30:03.768Z,21.60
2017-10-15T11:32:07.596Z,21.80
2017-10-15T11:34:10.270Z,21.80
2017-10-15T11:36:13.039Z,22.10
2017-10-15T11:38:15.704Z,21.90
2017-10-15T11:40:21.398Z,22.00
2017-10-15T11:42:27.586Z,21.90
2017-10-15T11:46:35.058Z,21.70
2017-10-15T11:48:37.709Z,21.70
2017-10-15T11:50:40.576Z,21.60
2017-10-15T11:52:43.245Z,21.50
2017-10-15T11:54:45.920Z,21.60
2017-10-15T11:56:48.583Z,21.60
2017-10-15T11:58:51.438Z,21.70
2017-10-15T12:00:54.899Z,22.10
2017-10-15T12:02:57.570Z,22.00
2017-10-15T12:05:00.266Z,22.30
2017-10-15T12:07:03.691Z,22.30
2017-10-15T12:09:07.523Z,22.30
2017-10-15T12:11:10.303Z,22.20
2017-10-15T12:13:12.981Z,22.30
2017-10-15T12:15:15.643Z,22.40
2017-10-15T12:17:18.519Z,22.30
2017-10-15T12:19:21.235Z,22.50
2017-10-15T12:21:24.021Z,22.50
2017-10-15T12:23:26.711Z,22.50
2017-10-15T12:25:29.441Z,22.60
2017-10-15T12:27:32.080Z,22.60
2017-10-15T12:29:35.534Z,22.50
2017-10-15T12:31:38.188Z,22.60
2017-10-15T12:33:40.847Z,22.30
2017-10-15T12:35:43.533Z,22.20
2017-10-15T12:37:46.197Z,22.40
2017-10-15T12:39:48.851Z,22.50
2017-10-15T12:41:52.290Z,22.70
2017-10-15T12:43:54.972Z,22.60
2017-10-15T12:45:57.621Z,22.60
2017-10-15T12:48:00.294Z,22.50
2017-10-15T12:50:03.810Z,22.60
2017-10-15T12:52:06.588Z,22.60
2017-10-15T12:54:10.404Z,22.50
2017-10-15T12:56:13.185Z,22.50
2017-10-15T12:58:15.892Z,22.50
2017-10-15T13:00:18.601Z,22.50
2017-10-15T13:02:22.017Z,22.60
2017-10-15T13:04:25.840Z,22.60
2017-10-15T13:06:28.511Z,22.60
2017-10-15T13:08:31.184Z,22.60
2017-10-15T13:10:33.879Z,22.60
2017-10-15T13:12:36.552Z,22.70
2017-10-15T13:14:39.194Z,22.80
2017-10-15T13:16:41.865Z,22.80
2017-10-15T13:18:44.655Z,22.80
2017-10-15T13:20:47.337Z,22.80
2017-10-15T13:22:50.212Z,22.70
2017-10-15T13:24:53.011Z,22.80
2017-10-15T13:26:55.771Z,22.80
2017-10-15T13:28:58.475Z,22.80
2017-10-15T13:31:01.228Z,22.80
2017-10-15T13:33:03.875Z,22.70
2017-10-15T13:35:07.329Z,22.60
2017-10-15T13:37:10.007Z,22.60
2017-10-15T13:39:12.762Z,22.70
2017-10-15T13:41:15.456Z,22.70
2017-10-15T13:43:19.386Z,22.70
2017-10-15T13:45:22.048Z,22.70
2017-10-15T13:47:24.751Z,22.70
2017-10-15T13:49:28.165Z,22.70
2017-10-15T13:51:30.817Z,22.70
2017-10-15T13:53:34.247Z,22.70
2017-10-15T13:55:36.908Z,22.70
2017-10-15T13:57:39.567Z,22.60
2017-10-15T13:59:43.617Z,22.70
2017-10-15T14:01:46.522Z,22.60
2017-10-15T14:03:49.177Z,22.70
2017-10-15T14:05:52.356Z,22.70
2017-10-15T14:07:55.038Z,22.70
2017-10-15T14:09:57.709Z,22.70
2017-10-15T14:12:00.481Z,22.60
2017-10-15T14:14:03.173Z,22.80
2017-10-15T14:16:06.142Z,22.70
2017-10-15T14:18:08.943Z,22.70
2017-10-15T14:20:11.609Z,22.70
2017-10-15T14:22:14.479Z,22.70
2017-10-15T14:24:17.201Z,22.70
2017-10-15T14:26:20.620Z,22.70
2017-10-15T14:28:24.083Z,22.70
2017-10-15T14:30:26.779Z,22.70
2017-10-15T14:32:30.210Z,22.80
2017-10-15T14:34:32.881Z,22.70
2017-10-15T14:36:35.581Z,22.80
2017-10-15T14:38:38.245Z,22.80
2017-10-15T14:40:40.889Z,22.80
2017-10-15T14:42:45.750Z,22.80
2017-10-15T14:44:48.443Z,22.70
2017-10-15T14:46:51.301Z,22.70
2017-10-15T14:48:54.133Z,22.60
2017-10-15T14:50:56.791Z,22.70
2017-10-15T14:52:59.465Z,22.50
2017-10-15T14:55:02.211Z,22.50
2017-10-15T14:57:04.989Z,22.50
2017-10-15T14:59:07.639Z,22.40
2017-10-15T15:01:11.066Z,22.40
2017-10-15T15:03:13.745Z,22.40
2017-10-15T15:05:16.392Z,22.30
2017-10-15T15:07:19.228Z,22.30
2017-10-15T15:09:21.969Z,22.10
2017-10-15T15:11:24.628Z,22.20
2017-10-15T15:13:27.525Z,22.20
2017-10-15T15:15:30.220Z,22.10
2017-10-15T15:17:32.975Z,22.00
2017-10-15T15:19:35.678Z,22.00
2017-10-15T15:21:38.336Z,22.10
2017-10-15T15:23:41.007Z,22.00
2017-10-15T15:25:43.703Z,22.00
2017-10-15T15:27:46.355Z,21.80
2017-10-15T15:29:49.159Z,21.90
2017-10-15T15:31:51.996Z,21.80
2017-10-15T15:33:55.456Z,21.80
2017-10-15T15:35:58.100Z,21.80
2017-10-15T15:38:00.830Z,21.70
2017-10-15T15:40:04.245Z,21.50
2017-10-15T15:42:06.906Z,21.50
2017-10-15T15:44:10.384Z,21.50
2017-10-15T15:46:13.040Z,21.50
2017-10-15T15:48:15.702Z,21.40
2017-10-15T15:50:18.370Z,21.20
2017-10-15T15:52:21.072Z,21.10
2017-10-15T15:54:25.562Z,21.00
2017-10-15T15:56:29.354Z,20.90
2017-10-15T15:58:32.007Z,20.90
2017-10-15T16:00:35.446Z,20.70
2017-10-15T16:02:38.123Z,20.70
2017-10-15T16:04:40.877Z,20.60
2017-10-15T16:06:43.525Z,20.50
2017-10-15T16:08:47.079Z,20.40
2017-10-15T16:10:49.850Z,20.40
2017-10-15T16:12:52.578Z,20.20
2017-10-15T16:14:56.076Z,20.00
2017-10-15T16:16:59.611Z,19.80
2017-10-15T16:19:02.264Z,19.80
2017-10-15T16:21:05.051Z,19.60
2017-10-15T16:23:07.904Z,19.30
2017-10-15T16:25:10.614Z,19.20
2017-10-15T16:27:13.388Z,19.00
2017-10-15T16:29:16.085Z,18.80
2017-10-15T16:31:18.772Z,18.80
2017-10-15T16:33:21.442Z,18.70
2017-10-15T16:35:24.163Z,18.80
2017-10-15T16:37:27.577Z,18.70
2017-10-15T16:39:30.269Z,18.70
2017-10-15T16:41:32.931Z,18.60
2017-10-15T16:43:35.579Z,18.40
2017-10-15T16:45:39.038Z,18.20
2017-10-15T16:47:41.787Z,18.20
2017-10-15T16:49:44.507Z,18.10
2017-10-15T16:51:47.208Z,17.80
2017-10-15T16:53:50.842Z,17.70
2017-10-15T16:55:53.504Z,17.70
2017-10-15T16:57:56.179Z,17.50
2017-10-15T16:59:58.971Z,17.40
2017-10-15T17:02:02.900Z,17.20
2017-10-15T17:04:05.581Z,17.10
2017-10-15T17:06:08.251Z,16.90
2017-10-15T17:08:11.016Z,16.80
2017-10-15T17:10:13.717Z,16.70
2017-10-15T17:12:16.391Z,16.70
2017-10-15T17:14:19.240Z,16.50
2017-10-15T17:16:21.953Z,16.40
2017-10-15T17:18:24.604Z,16.30
2017-10-15T17:20:27.291Z,16.20
2017-10-15T17:22:30.071Z,16.20
2017-10-15T17:24:32.726Z,16.30
2017-10-15T17:26:35.495Z,16.30
2017-10-15T17:28:38.281Z,16.20
2017-10-15T17:30:41.178Z,16.20
2017-10-15T17:32:44.040Z,16.20
2017-10-15T17:34:46.931Z,16.10
2017-10-15T17:36:49.599Z,16.10
2017-10-15T17:38:52.377Z,16.10
2017-10-15T17:40:55.159Z,16.00
2017-10-15T17:42:57.847Z,16.00
2017-10-15T17:45:00.636Z,15.90
2017-10-15T17:47:03.322Z,15.90
2017-10-15T17:49:06.111Z,15.80
2017-10-15T17:51:08.761Z,15.70
2017-10-15T17:53:24.486Z,15.70
2017-10-15T17:55:27.278Z,15.60
2017-10-15T17:57:30.763Z,15.40
2017-10-15T17:59:34.256Z,15.40
2017-10-15T18:01:37.696Z,15.30
2017-10-15T18:03:40.453Z,15.30
2017-10-15T18:05:43.129Z,15.40
2017-10-15T18:07:46.031Z,15.50
2017-10-15T18:09:49.563Z,15.60
2017-10-15T18:11:53.706Z,15.80
2017-10-15T18:13:57.634Z,15.90
2017-10-15T18:16:01.350Z,16.10
2017-10-15T18:18:04.170Z,16.10
2017-10-15T18:20:06.987Z,16.20
2017-10-15T18:22:09.692Z,16.20
2017-10-15T18:24:12.974Z,16.40
2017-10-15T18:26:15.901Z,16.30
2017-10-15T18:28:18.870Z,16.20
2017-10-15T18:30:22.653Z,16.10
2017-10-15T18:32:25.343Z,15.80
2017-10-15T18:34:28.626Z,15.70
2017-10-15T18:36:32.127Z,15.30
2017-10-15T18:38:35.182Z,15.30
2017-10-15T18:40:37.909Z,15.20
2017-10-15T18:42:41.377Z,14.90
2017-10-15T18:44:44.753Z,14.90
2017-10-15T18:46:47.703Z,14.80
2017-10-15T18:48:51.449Z,14.60
2017-10-15T18:50:54.118Z,14.60
2017-10-15T18:52:58.044Z,14.60
2017-10-15T18:55:00.971Z,14.60
2017-10-15T18:57:04.551Z,14.70
2017-10-15T18:59:08.046Z,14.60
2017-10-15T19:01:11.512Z,14.60
2017-10-15T19:03:14.161Z,14.60
2017-10-15T19:05:16.806Z,14.50
2017-10-15T19:07:20.638Z,14.50
2017-10-15T19:09:23.302Z,14.40
2017-10-15T19:11:25.969Z,14.50
2017-10-15T19:13:28.791Z,14.50
2017-10-15T19:15:31.477Z,14.40
2017-10-15T19:17:34.149Z,14.50
2017-10-15T19:19:36.821Z,14.50
2017-10-15T19:21:39.474Z,14.40
2017-10-15T19:23:42.126Z,14.40
2017-10-15T19:25:44.797Z,14.20
2017-10-15T19:27:48.219Z,14.30
2017-10-15T19:29:50.991Z,14.30
2017-10-15T19:31:53.692Z,14.30
2017-10-15T19:33:56.450Z,14.10
2017-10-15T19:35:59.110Z,14.10
2017-10-15T19:38:01.902Z,14.10
2017-10-15T19:40:04.571Z,14.00
2017-10-15T19:42:07.259Z,13.80
2017-10-15T19:44:09.963Z,13.70
2017-10-15T19:46:12.812Z,13.70
2017-10-15T19:48:15.462Z,13.70
2017-10-15T19:50:19.098Z,13.60
2017-10-15T19:52:21.936Z,13.60
2017-10-15T19:54:25.564Z,13.40
2017-10-15T19:56:28.330Z,13.40
2017-10-15T19:58:34.293Z,13.40
2017-10-15T20:00:37.095Z,13.40
2017-10-15T20:02:39.793Z,13.40
2017-10-15T20:04:42.459Z,13.50
2017-10-15T20:06:45.252Z,13.40
2017-10-15T20:08:47.931Z,13.30
2017-10-15T20:10:50.931Z,13.30
2017-10-15T20:12:54.462Z,13.30
2017-10-15T20:14:57.141Z,13.30
2017-10-15T20:16:59.813Z,13.40
2017-10-15T20:19:02.511Z,13.20
2017-10-15T20:21:05.228Z,13.10
2017-10-15T20:23:07.886Z,13.00
2017-10-15T20:25:10.620Z,13.00
2017-10-15T20:27:13.303Z,13.00
2017-10-15T20:29:16.180Z,12.90
2017-10-15T20:31:18.853Z,12.80
2017-10-15T20:33:21.525Z,12.90
2017-10-15T20:35:24.187Z,12.70
2017-10-15T20:37:26.881Z,12.70
2017-10-15T20:39:29.552Z,12.80
2017-10-15T20:41:32.212Z,12.80
2017-10-15T20:43:35.748Z,12.70
2017-10-15T20:45:38.635Z,12.70
2017-10-15T20:47:41.288Z,12.70
2017-10-15T20:49:43.951Z,12.70
2017-10-15T20:51:46.622Z,12.70
2017-10-15T20:53:49.279Z,12.60
2017-10-15T20:55:52.739Z,12.70
2017-10-15T20:57:55.439Z,12.70
2017-10-15T20:59:58.097Z,12.70
2017-10-15T21:02:00.751Z,12.60
2017-10-15T21:04:03.516Z,12.60
2017-10-15T21:06:06.180Z,12.50
2017-10-15T21:08:08.826Z,12.60
2017-10-15T21:10:11.504Z,12.60
2017-10-15T21:12:14.934Z,12.50
2017-10-15T21:14:17.611Z,12.50
2017-10-15T21:16:20.312Z,12.50
2017-10-15T21:18:23.172Z,12.50
2017-10-15T21:20:25.835Z,12.60
2017-10-15T21:22:28.513Z,12.50
2017-10-15T21:24:31.204Z,12.50
2017-10-15T21:26:33.958Z,12.50
2017-10-15T21:28:36.634Z,12.40
2017-10-15T21:30:39.292Z,12.50
2017-10-15T21:32:42.722Z,12.50
2017-10-15T21:34:45.401Z,12.50
2017-10-15T21:36:48.048Z,12.50
2017-10-15T21:38:51.468Z,12.60
2017-10-15T21:40:54.156Z,12.60
2017-10-15T21:42:56.810Z,12.50
2017-10-15T21:44:59.456Z,12.60
2017-10-15T21:47:02.992Z,12.30
2017-10-15T21:49:05.665Z,12.30
2017-10-15T21:51:08.340Z,12.30
2017-10-15T21:53:11.031Z,12.20
2017-10-15T21:55:13.809Z,12.00
2017-10-15T21:57:16.579Z,12.00
2017-10-15T21:59:19.268Z,12.00
2017-10-15T22:01:21.923Z,12.00
2017-10-15T22:03:24.605Z,12.00
2017-10-15T22:05:27.295Z,12.00
2017-10-15T22:07:29.964Z,12.10
2017-10-15T22:09:32.612Z,12.10
2017-10-15T22:11:36.066Z,12.20
2017-10-15T22:13:38.715Z,12.20
2017-10-15T22:15:41.388Z,12.20
2017-10-15T22:17:44.088Z,12.20
2017-10-15T22:19:46.756Z,12.20
2017-10-15T22:21:55.113Z,12.10
2017-10-15T22:23:58.563Z,12.20
2017-10-15T22:26:01.318Z,12.20
2017-10-15T22:28:03.984Z,12.20
2017-10-15T22:30:06.785Z,12.30
2017-10-15T22:32:09.430Z,12.30
2017-10-15T22:34:12.080Z,12.20
2017-10-15T22:36:15.630Z,12.40
2017-10-15T22:38:18.299Z,12.40
2017-10-15T22:40:21.083Z,12.40
2017-10-15T22:42:23.788Z,12.40
2017-10-15T22:44:26.436Z,12.40
2017-10-15T22:46:29.080Z,12.40
2017-10-15T22:48:31.749Z,12.40
2017-10-15T22:50:35.162Z,12.40
2017-10-15T22:52:37.859Z,12.40
2017-10-15T22:54:40.533Z,12.40
2017-10-15T22:56:43.324Z,12.50
2017-10-15T22:58:46.086Z,12.60
2017-10-15T23:00:48.775Z,12.50
2017-10-15T23:02:51.429Z,12.50
2017-10-15T23:04:54.107Z,12.50
2017-10-15T23:06:56.884Z,12.60
2017-10-15T23:08:59.537Z,12.60
2017-10-15T23:11:02.963Z,12.60
2017-10-15T23:13:05.660Z,12.60
2017-10-15T23:15:08.397Z,12.50
2017-10-15T23:17:11.044Z,12.60
2017-10-15T23:19:14.528Z,12.50
2017-10-15T23:21:17.204Z,12.50
2017-10-15T23:23:21.475Z,12.60
2017-10-15T23:25:24.159Z,12.60
2017-10-15T23:27:26.824Z,12.60
2017-10-15T23:29:29.481Z,12.40
2017-10-15T23:31:32.926Z,12.50
2017-10-15T23:33:35.592Z,12.50
2017-10-15T23:35:38.251Z,12.50
2017-10-15T23:37:40.942Z,12.40
2017-10-15T23:39:43.604Z,12.50
2017-10-15T23:41:46.254Z,12.60
2017-10-15T23:43:49.064Z,12.50
2017-10-15T23:45:51.737Z,12.30
2017-10-15T23:47:54.502Z,12.10
2017-10-15T23:49:57.295Z,12.20
2017-10-15T23:51:59.959Z,12.20
2017-10-15T23:54:02.604Z,12.10
2017-10-15T23:56:06.051Z,12.00
2017-10-15T23:58:08.709Z,12.00
